Погода Зиранина неделю

Республика Дагестан, Россия

13 - 19 июля
  • 13июля
    Сегодня
    +17°
    +30°
    Ясно и безоблачно
    ВремяПогодаТемператураВлажностьДавлениеВетер, м/сВероятность осадков
    00:00Ясно и безоблачно+25°C62 %708 мм0.9 м/с2 %
    03:00Ясно и безоблачно+24°C66 %708 мм0.7 м/с2 %
    06:00Ясно и безоблачно+23°C72 %708 мм0.3 м/с2 %
    09:00Практически безоблачно+26°C60 %708 мм1.5 м/с2 %
    12:00Практически безоблачно+27°C51 %708 мм2.5 м/с8 %
    15:00Ясно и безоблачно+29°C40 %708 мм2.4 м/с9 %
    18:00Ясно и безоблачно+27°C48 %707 мм1.4 м/с4 %
    21:00Ясно и безоблачно+23°C58 %708 мм0.3 м/с2 %
  • 14июля
    Воскресенье
    +19°
    +31°
    Небольшая облачность
    ВремяПогодаТемператураВлажностьДавлениеВетер, м/сВероятность осадков
    00:00Ясно и безоблачно+20°C74 %707 мм0.7 м/с2 %
    03:00Ясно и безоблачно+18°C85 %707 мм1.2 м/с2 %
    06:00Ясно и безоблачно+21°C79 %707 мм1.0 м/с2 %
    09:00Облачно с прояснениями+26°C44 %708 мм0.9 м/с2 %
    12:00Облачно с прояснениями+30°C30 %707 мм2.4 м/с2 %
    15:00Небольшая облачность+30°C28 %707 мм2.9 м/с2 %
    18:00Практически безоблачно+27°C41 %707 мм1.2 м/с2 %
    21:00Ясно и безоблачно+24°C47 %708 мм0.4 м/с2 %
  • 15июля
    Понедельник
    +21°
    +31°
    Практически безоблачно
    ВремяПогодаТемператураВлажностьДавлениеВетер, м/сВероятность осадков
    00:00Ясно и безоблачно+21°C65 %708 мм1.0 м/с2 %
    03:00Ясно и безоблачно+20°C68 %707 мм1.2 м/с2 %
    06:00Ясно и безоблачно+22°C64 %708 мм0.8 м/с2 %
    09:00Ясно и безоблачно+26°C35 %708 мм0.4 м/с2 %
    12:00Ясно и безоблачно+30°C35 %709 мм1.9 м/с2 %
    15:00Практически безоблачно+31°C36 %709 мм2.2 м/с2 %
    18:00Практически безоблачно+28°C49 %708 мм1.5 м/с2 %
    21:00Ясно и безоблачно+24°C60 %709 мм0.4 м/с2 %
  • 16июля
    Вторник
    +23°
    +33°
    Облачно с прояснениями
    ВремяПогодаТемператураВлажностьДавлениеВетер, м/сВероятность осадков
    00:00Ясно и безоблачно+22°C81 %709 мм1.3 м/с2 %
    03:00Ясно и безоблачно+22°C84 %709 мм1.2 м/с2 %
    06:00Ясно и безоблачно+24°C72 %709 мм1.2 м/с2 %
    09:00Небольшая облачность+28°C46 %710 мм0.3 м/с2 %
    12:00Практически безоблачно+31°C35 %710 мм1.8 м/с2 %
    15:00Облачно с прояснениями+32°C36 %709 мм3.1 м/с2 %
    18:00Практически безоблачно+29°C49 %710 мм1.3 м/с3 %
    21:00Ясно и безоблачно+27°C52 %710 мм0.3 м/с2 %
  • 17июля
    Среда
    +24°
    +31°
    Облачно с прояснениями
    ВремяПогодаТемператураВлажностьДавлениеВетер, м/сВероятность осадков
    00:00Ясно и безоблачно+24°C71 %709 мм1.0 м/с2 %
    03:00Небольшая облачность+25°C72 %709 мм0.7 м/с2 %
    06:00Практически безоблачно+25°C70 %710 мм0.8 м/с2 %
    09:00Практически безоблачно+29°C45 %711 мм0.2 м/с3 %
    12:00Облачно с прояснениями+30°C37 %710 мм2.1 м/с7 %
    15:00Облачно с прояснениями+30°C37 %710 мм1.1 м/с14 %
    18:00Небольшая облачность+28°C52 %710 мм1.3 м/с13 %
    21:00Практически безоблачно+27°C49 %711 мм0.7 м/с5 %
Мы используем cookies
Соглашаюсь